Time,TemperatureF,DewpointF,PressureIn,WindDirection,WindDirectionDegrees,WindSpeedMPH,WindSpeedGustMPH,Humidity,HourlyPrecipIn,Conditions,Clouds,dailyrainin,SoftwareType,DateUTC
2013-05-28 00:01:00,48.0,17.2,28.44,SE,132,0.0,0.0,29,0.00,CLR,OVC,0.00,WeatherDisplay:10.37,2013-05-28 04:01:00,
2013-05-28 00:02:00,48.0,17.2,28.44,SE,132,0.0,0.0,29,0.00,CLR,OVC,0.00,WeatherDisplay:10.37,2013-05-28 04:02:00,
2013-05-28 00:07:00,48.0,17.2,28.44,SE,132,0.0,0.0,29,0.00,CLR,OVC,0.00,WeatherDisplay:10.37,2013-05-28 04:07:00,
2013-05-28 00:09:00,48.0,18.0,28.44,SE,132,0.0,0.0,30,0.00,CLR,OVC,0.00,WeatherDisplay:10.37,2013-05-28 04:09:00,
2013-05-28 00:12:00,48.0,18.0,28.44,SE,132,0.0,0.0,30,0.00,CLR,OVC,0.00,WeatherDisplay:10.37,2013-05-28 04:12:00,
2013-05-28 00:17:00,48.0,18.0,28.44,SE,132,0.0,0.0,30,0.00,CLR,OVC,0.00,WeatherDisplay:10.37,2013-05-28 04:17:00,
2013-05-28 01:05:00,48.0,18.0,28.44,SE,132,0.0,0.0,30,0.00,CLR,OVC,0.00,WeatherDisplay:10.37,2013-05-28 05:05:00,
2013-05-28 01:10:00,48.0,18.0,28.44,SE,132,0.0,0.0,30,0.00,CLR,OVC,0.00,WeatherDisplay:10.37,2013-05-28 05:10:00,
2013-05-28 01:15:00,48.0,18.0,28.44,SE,132,0.0,0.0,30,0.00,CLR,OVC,0.00,WeatherDisplay:10.37,2013-05-28 05:15:00,
2013-05-28 02:43:00,48.0,18.0,28.44,SE,132,0.0,0.0,30,0.00,CLR,OVC,0.00,WeatherDisplay:10.37,2013-05-28 06:43:00,
2013-05-28 06:30:00,48.0,18.0,28.44,SE,132,0.0,0.0,30,0.00,CLR,OVC,0.00,WeatherDisplay:10.37,2013-05-28 10:30:00,
2013-05-28 08:59:00,48.0,18.0,28.44,SE,132,0.0,0.0,30,0.00,CLR,OVC,0.00,WeatherDisplay:10.37,2013-05-28 12:59:00,
2013-05-28 11:18:00,48.0,18.0,28.44,SE,132,0.0,0.0,30,0.00,CLR,OVC,0.00,WeatherDisplay:10.37,2013-05-28 15:18:00,
2013-05-28 16:14:00,57.4,29.9,28.26,SSE,153,2.7,0.0,35,0.00,CLR,OVC,0.00,WeatherDisplay:10.37,2013-05-28 20:14:00,
2013-05-28 16:19:00,57.6,30.1,28.26,East,97,4.0,4.0,35,0.00,CLR,OVC,0.00,WeatherDisplay:10.37,2013-05-28 20:19:00,
2013-05-28 16:24:00,57.7,30.2,28.26,SSE,164,2.7,4.6,35,0.00,CLR,OVC,0.00,WeatherDisplay:10.37,2013-05-28 20:24:00,
2013-05-28 16:29:00,57.6,30.1,28.26,SSE,154,0.0,4.0,35,0.00,CLR,OVC,0.00,WeatherDisplay:10.37,2013-05-28 20:29:00,
2013-05-28 16:34:00,57.2,30.5,28.26,South,191,3.6,5.4,36,0.00,CLR,OVC,0.00,WeatherDisplay:10.37,2013-05-28 20:34:00,
2013-05-28 16:39:00,57.0,30.3,28.26,SSE,163,2.2,3.5,36,0.00,CLR,OVC,0.00,WeatherDisplay:10.37,2013-05-28 20:39:00,
2013-05-28 16:44:00,57.0,30.3,28.26,SSE,153,5.8,8.1,36,0.00,CLR,OVC,0.00,WeatherDisplay:10.37,2013-05-28 20:44:00,
2013-05-28 16:49:00,56.7,30.0,28.26,SSE,149,0.0,4.6,36,0.00,CLR,OVC,0.00,WeatherDisplay:10.37,2013-05-28 20:49:00,
2013-05-28 16:54:00,56.7,30.7,28.26,South,181,4.0,5.8,37,0.00,CLR,OVC,0.00,WeatherDisplay:10.37,2013-05-28 20:54:00,
2013-05-28 16:59:00,56.7,30.7,28.26,SE,124,2.2,3.6,37,0.00,CLR,OVC,0.00,WeatherDisplay:10.37,2013-05-28 20:59:00,
2013-05-28 17:04:00,57.0,31.0,28.26,South,179,3.6,6.3,37,0.00,CLR,OVC,0.00,WeatherDisplay:10.37,2013-05-28 21:04:00,
2013-05-28 17:09:00,57.2,31.1,28.26,SSE,168,2.7,3.5,37,0.00,CLR,OVC,0.00,WeatherDisplay:10.37,2013-05-28 21:09:00,
2013-05-28 17:14:00,57.0,31.0,28.26,SSE,164,2.2,5.8,37,0.00,CLR,OVC,0.00,WeatherDisplay:10.37,2013-05-28 21:14:00,
2013-05-28 17:19:00,57.6,30.8,28.26,SSE,162,6.3,6.3,36,0.00,CLR,OVC,0.00,WeatherDisplay:10.37,2013-05-28 21:19:00,
2013-05-28 17:24:00,57.7,31.6,28.26,SSE,154,0.0,0.0,37,0.00,CLR,OVC,0.00,WeatherDisplay:10.37,2013-05-28 21:24:00,
2013-05-28 17:29:00,57.6,30.8,28.26,SSE,155,2.7,8.1,36,0.00,CLR,OVC,0.00,WeatherDisplay:10.37,2013-05-28 21:29:00,
2013-05-28 17:34:00,57.7,31.6,28.26,South,177,0.0,5.8,37,0.00,CLR,OVC,0.00,WeatherDisplay:10.37,2013-05-28 21:34:00,
2013-05-28 17:39:00,58.6,31.7,28.26,SSE,160,2.2,3.5,36,0.00,CLR,OVC,0.00,WeatherDisplay:10.37,2013-05-28 21:39:00,
2013-05-28 17:44:00,59.5,31.8,28.26,ENE,78,4.0,5.8,35,0.00,CLR,OVC,0.00,WeatherDisplay:10.37,2013-05-28 21:44:00,
2013-05-28 17:49:00,60.1,31.6,28.26,SE,146,0.0,5.8,34,0.00,CLR,OVC,0.00,WeatherDisplay:10.37,2013-05-28 21:49:00,
2013-05-28 17:54:00,60.1,31.6,28.26,SSE,165,4.0,5.8,34,0.00,CLR,OVC,0.00,WeatherDisplay:10.37,2013-05-28 21:54:00,
2013-05-28 17:59:00,60.4,31.9,28.26,SSE,155,2.2,3.5,34,0.00,CLR,OVC,0.00,WeatherDisplay:10.37,2013-05-28 21:59:00,
2013-05-28 18:04:00,60.3,31.8,28.23,SSW,195,4.5,5.8,34,0.00,CLR,OVC,0.00,WeatherDisplay:10.37,2013-05-28 22:04:00,
2013-05-28 18:09:00,59.0,31.4,28.23,SSW,197,2.7,4.9,35,0.00,CLR,OVC,0.00,WeatherDisplay:10.37,2013-05-28 22:09:00,
2013-05-28 18:14:00,59.0,31.4,28.23,SW,225,3.6,5.8,35,0.00,CLR,OVC,0.00,WeatherDisplay:10.37,2013-05-28 22:14:00,
2013-05-28 18:19:00,58.5,31.6,28.23,South,173,3.6,3.6,36,0.00,CLR,OVC,0.00,WeatherDisplay:10.37,2013-05-28 22:19:00,
2013-05-28 18:24:00,58.3,31.4,28.23,South,183,2.2,2.7,36,0.00,CLR,OVC,0.00,WeatherDisplay:10.37,2013-05-28 22:24:00,
2013-05-28 18:29:00,58.1,31.9,28.23,South,186,4.0,5.8,37,0.00,CLR,OVC,0.00,WeatherDisplay:10.37,2013-05-28 22:29:00,
2013-05-28 18:34:00,58.1,31.3,28.23,SSE,160,4.5,4.9,36,0.00,CLR,OVC,0.00,WeatherDisplay:10.37,2013-05-28 22:34:00,
2013-05-28 18:39:00,57.7,31.6,28.23,South,180,0.0,5.8,37,0.00,CLR,OVC,0.00,WeatherDisplay:10.37,2013-05-28 22:39:00,
2013-05-28 18:44:00,57.6,31.5,28.23,SSE,157,2.7,5.8,37,0.00,CLR,OVC,0.00,WeatherDisplay:10.37,2013-05-28 22:44:00,
2013-05-28 18:49:00,57.7,32.3,28.23,SSW,192,2.7,3.5,38,0.00,CLR,OVC,0.00,WeatherDisplay:10.37,2013-05-28 22:49:00,
2013-05-28 18:54:00,57.7,32.3,28.23,South,176,0.0,2.7,38,0.00,CLR,OVC,0.00,WeatherDisplay:10.37,2013-05-28 22:54:00,
2013-05-28 18:59:00,57.6,32.1,28.23,SE,146,2.7,5.8,38,0.00,CLR,OVC,0.00,WeatherDisplay:10.37,2013-05-28 22:59:00,
2013-05-28 19:04:00,57.4,32.0,28.23,SSE,167,5.4,5.8,38,0.00,CLR,OVC,0.00,WeatherDisplay:10.37,2013-05-28 23:04:00,
2013-05-28 19:09:00,57.2,32.4,28.23,South,189,5.8,5.8,39,0.00,CLR,OVC,0.00,WeatherDisplay:10.37,2013-05-28 23:09:00,
2013-05-28 19:14:00,57.2,32.4,28.23,South,178,3.6,4.0,39,0.00,CLR,OVC,0.00,WeatherDisplay:10.37,2013-05-28 23:14:00,
2013-05-28 19:19:00,57.0,32.9,28.23,SSE,164,2.2,3.5,40,0.00,CLR,OVC,0.00,WeatherDisplay:10.37,2013-05-28 23:19:00,
2013-05-28 19:24:00,56.8,32.8,28.23,SSW,198,2.7,3.6,40,0.00,CLR,OVC,0.00,WeatherDisplay:10.37,2013-05-28 23:24:00,
2013-05-28 19:29:00,56.8,33.4,28.23,SSW,196,2.2,3.1,41,0.00,CLR,OVC,0.00,WeatherDisplay:10.37,2013-05-28 23:29:00,
2013-05-28 19:34:00,56.8,33.4,28.23,SSE,157,0.0,2.3,41,0.00,CLR,OVC,0.00,WeatherDisplay:10.37,2013-05-28 23:34:00,
2013-05-28 19:39:00,56.7,33.2,28.23,South,182,4.0,5.8,41,0.00,CLR,OVC,0.00,WeatherDisplay:10.37,2013-05-28 23:39:00,
2013-05-28 19:44:00,56.7,33.2,28.23,South,170,0.0,3.5,41,0.00,CLR,OVC,0.00,WeatherDisplay:10.37,2013-05-28 23:44:00,
2013-05-28 19:49:00,56.7,33.8,28.23,SSW,204,2.7,3.5,42,0.00,CLR,OVC,0.00,WeatherDisplay:10.37,2013-05-28 23:49:00,
2013-05-28 19:54:00,56.7,33.8,28.23,SSE,168,3.1,3.5,42,0.00,CLR,OVC,0.00,WeatherDisplay:10.37,2013-05-28 23:54:00,
2013-05-28 19:59:00,56.5,33.6,28.23,South,169,0.0,4.9,42,0.00,CLR,OVC,0.00,WeatherDisplay:10.37,2013-05-28 23:59:00,
2013-05-28 20:04:00,56.3,34.1,28.23,South,189,3.1,4.6,43,0.00,CLR,OVC,0.00,WeatherDisplay:10.37,2013-05-29 00:04:00,
2013-05-28 20:09:00,56.1,34.5,28.23,SSE,155,4.0,5.8,44,0.00,CLR,OVC,0.00,WeatherDisplay:10.37,2013-05-29 00:09:00,
2013-05-28 20:14:00,55.9,34.9,28.23,SSW,200,2.7,3.5,45,0.00,CLR,OVC,0.00,WeatherDisplay:10.37,2013-05-29 00:14:00,
2013-05-28 20:19:00,55.9,34.9,28.23,South,185,3.6,4.0,45,0.00,CLR,OVC,0.00,WeatherDisplay:10.37,2013-05-29 00:19:00,
2013-05-28 20:24:00,55.8,35.3,28.23,South,187,0.0,3.5,46,0.00,CLR,OVC,0.00,WeatherDisplay:10.37,2013-05-29 00:24:00,
2013-05-28 20:29:00,55.8,35.3,28.23,SSW,198,4.0,4.0,46,0.00,CLR,OVC,0.00,WeatherDisplay:10.37,2013-05-29 00:29:00,
2013-05-28 20:34:00,55.8,35.3,28.23,South,171,0.0,4.6,46,0.00,CLR,OVC,0.00,WeatherDisplay:10.37,2013-05-29 00:34:00,
2013-05-28 20:39:00,55.8,35.3,28.23,South,173,2.2,4.6,46,0.00,CLR,OVC,0.00,WeatherDisplay:10.37,2013-05-29 00:39:00,
2013-05-28 20:44:00,55.6,35.1,28.23,South,180,4.0,5.8,46,0.00,CLR,OVC,0.00,WeatherDisplay:10.37,2013-05-29 00:44:00,
2013-05-28 20:49:00,55.4,34.9,28.23,SSW,194,0.0,2.3,46,0.00,CLR,OVC,0.00,WeatherDisplay:10.37,2013-05-29 00:49:00,
2013-05-28 20:54:00,55.4,35.5,28.23,South,191,2.7,2.7,47,0.00,CLR,OVC,0.00,WeatherDisplay:10.37,2013-05-29 00:54:00,
2013-05-28 20:59:00,55.4,35.5,28.23,South,170,0.0,3.5,47,0.00,CLR,OVC,0.00,WeatherDisplay:10.37,2013-05-29 00:59:00,
2013-05-28 21:04:00,55.2,35.3,28.23,South,187,0.0,4.6,47,0.00,CLR,OVC,0.00,WeatherDisplay:10.37,2013-05-29 01:04:00,
2013-05-28 21:09:00,55.2,35.9,28.23,SSE,165,0.0,3.5,48,0.00,CLR,OVC,0.00,WeatherDisplay:10.37,2013-05-29 01:09:00,
2013-05-28 21:14:00,55.0,35.7,28.23,South,191,2.7,4.6,48,0.00,CLR,OVC,0.00,WeatherDisplay:10.37,2013-05-29 01:14:00,
2013-05-28 21:19:00,55.0,35.7,28.23,South,179,2.2,2.3,48,0.00,CLR,OVC,0.00,WeatherDisplay:10.37,2013-05-29 01:19:00,
2013-05-28 21:24:00,54.9,36.0,28.23,SSW,199,2.7,3.5,49,0.00,CLR,OVC,0.00,WeatherDisplay:10.37,2013-05-29 01:24:00,
2013-05-28 21:29:00,54.7,35.9,28.23,SSW,195,3.1,3.5,49,0.00,CLR,OVC,0.00,WeatherDisplay:10.37,2013-05-29 01:29:00,
2013-05-28 21:34:00,54.5,36.2,28.23,South,178,3.6,3.6,50,0.00,CLR,OVC,0.00,WeatherDisplay:10.37,2013-05-29 01:34:00,
2013-05-28 21:39:00,54.5,36.7,28.23,South,182,3.1,3.5,51,0.00,CLR,OVC,0.00,WeatherDisplay:10.37,2013-05-29 01:39:00,
2013-05-28 21:44:00,54.3,37.1,28.23,South,184,0.0,2.3,52,0.00,CLR,OVC,0.00,WeatherDisplay:10.37,2013-05-29 01:44:00,
2013-05-28 21:49:00,54.1,36.9,28.23,SSW,205,0.0,0.0,52,0.00,CLR,OVC,0.00,WeatherDisplay:10.37,2013-05-29 01:49:00,
2013-05-28 21:54:00,54.1,36.9,28.23,SSW,205,0.0,0.0,52,0.00,CLR,OVC,0.00,WeatherDisplay:10.37,2013-05-29 01:54:00,
2013-05-28 21:59:00,54.0,37.2,28.23,SSW,204,0.0,0.0,53,0.00,CLR,OVC,0.00,WeatherDisplay:10.37,2013-05-29 01:59:00,
2013-05-28 22:04:00,53.8,37.0,28.23,SSW,204,0.0,0.0,53,0.00,CLR,OVC,0.00,WeatherDisplay:10.37,2013-05-29 02:04:00,
2013-05-28 22:09:00,53.8,37.0,28.23,SSW,204,0.0,0.0,53,0.00,CLR,OVC,0.00,WeatherDisplay:10.37,2013-05-29 02:09:00,
2013-05-28 22:14:00,53.6,37.3,28.23,SSW,204,0.0,0.0,54,0.00,CLR,OVC,0.00,WeatherDisplay:10.37,2013-05-29 02:14:00,
2013-05-28 22:19:00,53.6,37.8,28.23,SSW,204,0.0,0.0,55,0.00,CLR,OVC,0.00,WeatherDisplay:10.37,2013-05-29 02:19:00,
2013-05-28 22:24:00,53.6,37.8,28.23,SSW,204,0.0,0.0,55,0.00,CLR,OVC,0.00,WeatherDisplay:10.37,2013-05-29 02:24:00,
2013-05-28 22:29:00,53.6,39.6,28.23,SSW,204,0.0,0.0,59,0.00,CLR,OVC,0.00,WeatherDisplay:10.37,2013-05-29 02:29:00,
2013-05-28 22:34:00,53.6,40.0,28.23,SSW,204,0.0,0.0,60,0.00,CLR,OVC,0.00,WeatherDisplay:10.37,2013-05-29 02:34:00,
2013-05-28 22:39:00,53.6,40.0,28.23,SSW,204,0.0,0.0,60,0.00,CLR,OVC,0.00,WeatherDisplay:10.37,2013-05-29 02:39:00,
2013-05-28 22:44:00,53.6,40.0,28.23,South,186,3.6,3.6,60,0.00,CLR,OVC,0.00,WeatherDisplay:10.37,2013-05-29 02:44:00,
2013-05-28 22:49:00,53.4,39.9,28.23,South,191,3.6,3.6,60,0.00,CLR,OVC,0.00,WeatherDisplay:10.37,2013-05-29 02:49:00,
2013-05-28 22:54:00,53.2,39.7,28.23,SSW,193,0.0,3.1,60,0.00,CLR,OVC,0.00,WeatherDisplay:10.37,2013-05-29 02:54:00,
2013-05-28 22:59:00,53.2,41.0,28.23,SSW,193,0.0,0.0,63,0.00,CLR,OVC,0.00,WeatherDisplay:10.37,2013-05-29 02:59:00,
2013-05-28 23:04:00,52.9,40.2,28.23,SSW,193,0.0,0.0,62,0.00,CLR,OVC,0.00,WeatherDisplay:10.37,2013-05-29 03:04:00,
2013-05-28 23:09:00,52.9,39.8,28.23,SSW,193,0.0,0.0,61,0.00,CLR,OVC,0.00,WeatherDisplay:10.37,2013-05-29 03:09:00,
2013-05-28 23:14:00,52.7,39.6,28.23,SSW,193,0.0,0.0,61,0.00,CLR,OVC,0.00,WeatherDisplay:10.37,2013-05-29 03:14:00,
2013-05-28 23:19:00,52.5,39.5,28.23,SSW,193,0.0,0.0,61,0.00,CLR,OVC,0.00,WeatherDisplay:10.37,2013-05-29 03:19:00,
2013-05-28 23:24:00,52.5,39.5,28.23,SSW,193,0.0,0.0,61,0.00,CLR,OVC,0.00,WeatherDisplay:10.37,2013-05-29 03:24:00,
2013-05-28 23:29:00,52.5,39.5,28.23,SSW,193,0.0,0.0,61,0.00,CLR,OVC,0.00,WeatherDisplay:10.37,2013-05-29 03:29:00,
2013-05-28 23:34:00,52.5,39.9,28.23,SSW,193,0.0,0.0,62,0.00,CLR,OVC,0.00,WeatherDisplay:10.37,2013-05-29 03:34:00,
2013-05-28 23:39:00,52.7,40.9,28.23,SSW,193,0.0,0.0,64,0.00,CLR,OVC,0.00,WeatherDisplay:10.37,2013-05-29 03:39:00,
2013-05-28 23:44:00,52.9,43.0,28.23,SSW,193,0.0,0.0,69,0.00,CLR,OVC,0.00,WeatherDisplay:10.37,2013-05-29 03:44:00,
2013-05-28 23:49:00,52.7,42.8,28.23,SSW,193,0.0,0.0,69,0.00,CLR,OVC,0.00,WeatherDisplay:10.37,2013-05-29 03:49:00,
2013-05-28 23:54:00,52.5,42.6,28.23,SSW,193,0.0,0.0,69,0.00,CLR,OVC,0.00,WeatherDisplay:10.37,2013-05-29 03:54:00,
2013-05-28 23:59:00,52.2,42.3,28.23,SSW,193,0.0,0.0,69,0.00,CLR,OVC,0.00,WeatherDisplay:10.37,2013-05-29 03:59:00,